Time;durP1;ratioP1;P1;durP2;ratioP2;P2;SDS_P1;SDS_P2;PMS_P1;PMS_P2;Temp;Humidity;BMP_temperature;BMP_pressure;BME280_temperature;BME280_humidity;BME280_pressure;Samples;Min_cycle;Max_cycle;Signal;HPM_P1;HPM_P2
2022/12/20 00:01:24;;;;;;;;;2.50;1.00;;;;;-0.72;78.39;99458.94;4915675;28;102487;-76
2022/12/20 00:03:53;;;;;;;;;3.50;2.00;;;;;-0.71;78.39;99454.50;4917747;28;104104;-76
2022/12/20 00:06:22;;;;;;;;;0.00;0.00;;;;;-0.71;79.19;99451.84;4912821;28;102508;-76
2022/12/20 00:08:54;;;;;;;;;0.25;0.00;;;;;-0.69;78.86;99450.78;4914089;28;102316;-75
2022/12/20 00:11:21;;;;;;;;;0.75;0.00;;;;;-0.66;78.40;99455.88;4913195;28;102482;-76
2022/12/20 00:13:49;;;;;;;;;0.00;0.00;;;;;-0.64;78.62;99461.94;4912071;28;104329;-76
2022/12/20 00:16:19;;;;;;;;;1.00;0.00;;;;;-0.64;78.67;99450.47;4910708;28;102171;-76
2022/12/20 00:18:49;;;;;;;;;1.00;1.00;;;;;-0.69;77.79;99428.69;4913127;28;102247;-76
2022/12/20 00:21:16;;;;;;;;;0.75;0.75;;;;;-0.59;78.89;99440.34;4913953;28;102059;-75
2022/12/20 00:23:43;;;;;;;;;2.00;1.00;;;;;-0.60;78.42;99428.03;4909515;28;104925;-76
2022/12/20 00:26:13;;;;;;;;;1.25;0.75;;;;;-0.56;78.31;99433.00;4913004;28;102001;-74
2022/12/20 00:28:41;;;;;;;;;0.75;0.00;;;;;-0.53;78.08;99431.94;4914295;28;103079;-74
2022/12/20 00:31:11;;;;;;;;;1.00;1.00;;;;;-0.52;78.52;99441.59;4907007;28;103467;-73
2022/12/20 00:33:39;;;;;;;;;1.75;0.25;;;;;-0.53;78.65;99430.13;4911977;28;104111;-74
2022/12/20 00:36:07;;;;;;;;;2.75;1.00;;;;;-0.52;77.84;99418.53;4919921;28;103306;-75
2022/12/20 00:38:34;;;;;;;;;1.00;1.00;;;;;-0.53;78.18;99427.47;4914640;28;101955;-75
2022/12/20 00:41:13;;;;;;;;;3.50;1.00;;;;;-0.52;78.12;99425.66;4912526;28;102387;-75
2022/12/20 00:43:40;;;;;;;;;0.00;0.00;;;;;-0.52;77.08;99426.50;4909475;28;108723;-73
2022/12/20 00:46:09;;;;;;;;;1.75;1.00;;;;;-0.50;77.78;99418.44;4916031;28;102055;-75
2022/12/20 00:48:37;;;;;;;;;1.00;0.00;;;;;-0.48;76.83;99419.16;4913121;28;102268;-75
2022/12/20 00:51:11;;;;;;;;;1.00;1.00;;;;;-0.45;77.48;99421.59;4913685;28;102783;-74
2022/12/20 00:53:38;;;;;;;;;1.00;1.00;;;;;-0.45;77.54;99421.59;4913176;28;108620;-74
2022/12/20 00:56:06;;;;;;;;;1.00;0.75;;;;;-0.47;76.75;99429.69;4917458;28;101990;-75
2022/12/20 00:58:35;;;;;;;;;0.25;0.25;;;;;-0.42;77.75;99426.69;4905920;28;101861;-74
2022/12/20 01:01:04;;;;;;;;;0.00;0.00;;;;;-0.64;77.85;99379.59;4916391;28;102403;-75
2022/12/20 01:03:31;;;;;;;;;1.50;1.50;;;;;-0.39;78.09;99410.53;4915491;28;104184;-74
2022/12/20 01:06:00;;;;;;;;;1.50;0.25;;;;;-0.41;77.80;99407.16;4910261;28;104235;-75
2022/12/20 01:08:30;;;;;;;;;1.00;0.00;;;;;-0.35;77.01;99400.50;4907714;28;102354;-75
2022/12/20 01:11:05;;;;;;;;;1.00;0.00;;;;;-0.33;77.29;99390.63;4912351;28;102254;-75
2022/12/20 01:13:34;;;;;;;;;2.00;1.00;;;;;-0.32;77.76;99389.69;4916027;28;104085;-75
2022/12/20 01:16:13;;;;;;;;;0.25;0.25;;;;;-0.29;77.42;99389.44;4908768;28;102337;-75
2022/12/20 01:18:40;;;;;;;;;1.00;0.50;;;;;-0.32;77.22;99381.72;4912116;28;102139;-76
2022/12/20 01:21:10;;;;;;;;;1.00;1.00;;;;;-0.31;77.35;99404.63;4910932;28;103575;-74
2022/12/20 01:23:39;;;;;;;;;6.67;4.67;;;;;-0.39;77.52;99421.16;4910506;28;108709;-75
2022/12/20 01:26:09;;;;;;;;;5.33;5.00;;;;;-0.40;78.27;99439.84;4910425;28;102561;-74
2022/12/20 01:28:39;;;;;;;;;4.00;4.00;;;;;-0.39;78.83;99421.16;4920283;28;102360;-74
2022/12/20 01:31:07;;;;;;;;;6.00;4.00;;;;;-0.42;78.41;99413.41;4929826;28;102424;-75
2022/12/20 01:33:35;;;;;;;;;14.33;8.67;;;;;-0.46;78.60;99430.53;4929996;28;108414;-74
2022/12/20 01:36:05;;;;;;;;;10.67;5.33;;;;;-0.37;79.30;99410.41;4919654;28;102398;-75
2022/12/20 01:38:34;;;;;;;;;4.00;2.67;;;;;-0.32;78.42;99410.94;4927060;28;102348;-75
2022/12/20 01:41:01;;;;;;;;;4.33;2.00;;;;;-0.55;78.68;99368.31;4919472;28;102332;-74
2022/12/20 01:43:47;;;;;;;;;4.25;4.00;;;;;-0.31;78.86;99407.28;4912406;28;104091;-74
2022/12/20 01:46:18;;;;;;;;;3.33;2.00;;;;;-0.28;78.84;99397.31;4913321;28;102610;-75
2022/12/20 01:48:51;;;;;;;;;4.00;2.00;;;;;-0.28;78.93;99394.66;4919358;28;102319;-75
2022/12/20 01:51:19;;;;;;;;;8.25;4.00;;;;;-0.28;79.07;99397.31;4902276;28;105187;-75
2022/12/20 01:53:51;;;;;;;;;4.00;1.00;;;;;-0.28;78.86;99381.38;4917342;28;104065;-75
2022/12/20 01:56:18;;;;;;;;;2.00;2.00;;;;;-0.21;79.31;99366.66;4900734;28;102461;-75
2022/12/20 01:58:48;;;;;;;;;3.50;1.50;;;;;-0.23;79.35;99355.31;4916442;28;101930;-75
2022/12/20 02:01:15;;;;;;;;;2.00;1.00;;;;;-0.18;78.90;99361.09;4881814;28;102190;-75
2022/12/20 02:03:42;;;;;;;;;1.00;1.00;;;;;-0.16;78.94;99363.66;4904249;28;104180;-74
2022/12/20 02:06:21;;;;;;;;;4.00;2.00;;;;;-0.20;78.37;99352.41;4900705;28;103160;-74
2022/12/20 02:09:09;;;;;;;;;2.00;1.00;;;;;-0.16;79.74;99375.13;4889282;28;102003;-75
2022/12/20 02:12:12;;;;;;;;;4.25;2.50;;;;;-0.25;78.71;99364.34;4890394;28;102140;-75
2022/12/20 02:14:56;;;;;;;;;7.00;4.00;;;;;-0.21;78.72;99345.38;4886827;28;108666;-75
2022/12/20 02:17:57;;;;;;;;;2.00;2.00;;;;;-0.21;79.18;99364.00;4890818;28;102320;-75
2022/12/20 02:21:06;;;;;;;;;2.67;2.67;;;;;-0.16;79.33;99364.50;4891392;28;102251;-75
2022/12/20 02:24:23;;;;;;;;;4.00;2.00;;;;;-0.22;79.22;99380.88;4894991;28;102390;-75
2022/12/20 02:27:42;;;;;;;;;9.00;8.00;;;;;-0.26;80.30;99375.91;4892903;28;108852;-75
2022/12/20 02:30:21;;;;;;;;;15.33;11.33;;;;;-0.27;79.81;99377.72;4894984;28;102326;-76
2022/12/20 02:32:52;;;;;;;;;8.67;8.00;;;;;-0.24;80.00;99356.25;4892714;28;102454;-74
2022/12/20 02:35:23;;;;;;;;;11.33;9.67;;;;;-0.25;79.69;99362.53;4894434;28;102478;-74
2022/12/20 02:37:52;;;;;;;;;12.67;11.67;;;;;-0.32;80.32;99357.78;4894614;28;103373;-76
2022/12/20 02:40:24;;;;;;;;;11.00;8.00;;;;;-0.22;80.30;99350.81;4897730;28;102705;-74
2022/12/20 02:42:57;;;;;;;;;6.00;6.00;;;;;-0.16;80.59;99342.38;4891089;28;103399;-74
2022/12/20 02:45:28;;;;;;;;;9.00;5.00;;;;;-0.11;80.26;99343.75;4886957;28;102139;-74
2022/12/20 02:48:03;;;;;;;;;5.33;5.00;;;;;-0.15;79.90;99334.31;4887427;28;104096;-75
2022/12/20 02:50:43;;;;;;;;;6.00;5.00;;;;;-0.15;80.12;99339.63;4893310;28;103565;-75
2022/12/20 02:53:12;;;;;;;;;4.67;1.67;;;;;-0.15;79.20;99341.44;4888395;28;102131;-73
2022/12/20 02:56:20;;;;;;;;;8.00;6.00;;;;;-0.21;79.45;99368.47;4894661;28;102402;-73
2022/12/20 02:58:56;;;;;;;;;6.67;6.33;;;;;-0.27;79.96;99367.09;4834987;28;108789;-75
2022/12/20 03:01:35;;;;;;;;;8.33;5.00;;;;;-0.22;79.97;99359.63;4889075;28;102514;-75
2022/12/20 03:04:03;;;;;;;;;3.00;2.00;;;;;-0.22;79.35;99359.63;4898023;28;102219;-75
2022/12/20 03:06:30;;;;;;;;;4.00;2.00;;;;;-0.21;79.66;99356.03;4903326;28;102013;-75
2022/12/20 03:08:57;;;;;;;;;1.50;1.00;;;;;-0.23;79.62;99339.34;4904803;28;104040;-75
2022/12/20 03:11:24;;;;;;;;;1.25;1.25;;;;;-0.28;79.44;99354.78;4895918;28;102017;-75
2022/12/20 03:13:51;;;;;;;;;1.50;1.50;;;;;-0.35;80.27;99342.91;4904914;28;102200;-74
2022/12/20 03:16:19;;;;;;;;;2.67;1.00;;;;;-0.37;80.20;99328.06;4898419;28;102834;-75
2022/12/20 03:18:46;;;;;;;;;1.67;1.00;;;;;-0.44;80.13;99319.69;4910089;28;104705;-75
2022/12/20 03:21:13;;;;;;;;;2.00;2.00;;;;;-0.41;80.89;99321.28;4905309;28;102535;-75
2022/12/20 03:23:40;;;;;;;;;1.00;0.00;;;;;-0.41;80.52;99338.06;4909319;28;102189;-74
2022/12/20 03:26:07;;;;;;;;;2.00;2.00;;;;;-0.43;80.86;99339.13;4896208;28;102285;-75
2022/12/20 03:28:34;;;;;;;;;1.00;1.00;;;;;-0.46;80.84;99342.88;4900552;28;108719;-75
2022/12/20 03:31:01;;;;;;;;;1.00;1.00;;;;;-0.90;80.38;99275.28;4899552;28;102434;-75
2022/12/20 03:33:28;;;;;;;;;1.00;1.00;;;;;-0.49;81.03;99341.28;4897796;28;102334;-75
2022/12/20 03:35:55;;;;;;;;;1.33;1.33;;;;;-0.52;80.95;99338.00;4893040;28;102196;-76
2022/12/20 03:38:22;;;;;;;;;1.00;1.00;;;;;-0.52;81.22;99322.94;4886800;28;104210;-76
2022/12/20 03:40:49;;;;;;;;;2.67;1.00;;;;;-0.53;81.33;99315.91;4890431;28;113010;-75
2022/12/20 03:43:16;;;;;;;;;4.00;4.00;;;;;-0.62;81.59;99310.44;4893317;28;102433;-76
2022/12/20 03:45:43;;;;;;;;;0.67;0.33;;;;;-0.58;81.63;99303.94;4895371;28;102379;-76
2022/12/20 03:48:10;;;;;;;;;6.00;6.00;;;;;-0.71;82.16;99319.94;4894243;28;104339;-75
2022/12/20 03:50:37;;;;;;;;;12.00;9.67;;;;;-0.86;82.38;99330.84;4895666;28;102295;-76
2022/12/20 03:53:04;;;;;;;;;16.33;13.33;;;;;-0.91;83.19;99318.75;4891186;28;102284;-76
2022/12/20 03:55:31;;;;;;;;;10.33;8.00;;;;;-0.82;83.17;99321.69;4892208;28;103570;-76
2022/12/20 03:57:58;;;;;;;;;8.00;5.00;;;;;-0.80;82.26;99319.75;4901692;28;104868;-74
2022/12/20 04:00:25;;;;;;;;;3.33;2.67;;;;;-0.81;81.78;99323.38;4908468;28;101910;-74
2022/12/20 04:02:52;;;;;;;;;5.33;4.67;;;;;-0.89;82.48;99321.28;4910646;28;102193;-74
2022/12/20 04:05:20;;;;;;;;;13.67;8.00;;;;;-0.95;82.22;99325.25;4892831;28;102191;-75
2022/12/20 04:07:47;;;;;;;;;8.00;6.00;;;;;-0.94;82.07;99329.56;4912353;28;104017;-75
2022/12/20 04:10:14;;;;;;;;;14.67;12.33;;;;;-0.99;83.42;99326.41;4898276;28;103573;-74
2022/12/20 04:12:41;;;;;;;;;15.33;14.33;;;;;-1.01;83.46;99323.03;4912947;28;101945;-75
2022/12/20 04:15:08;;;;;;;;;14.00;10.33;;;;;-0.98;83.36;99328.09;4921886;28;102850;-75
2022/12/20 04:17:35;;;;;;;;;15.00;14.33;;;;;-1.01;83.04;99320.38;4920085;28;104067;-75
2022/12/20 04:20:17;;;;;;;;;15.00;13.00;;;;;-1.02;82.63;99316.00;4914998;28;102346;-75
2022/12/20 04:22:46;;;;;;;;;15.33;14.33;;;;;-0.99;82.81;99314.97;4915923;28;102878;-76
2022/12/20 04:25:14;;;;;;;;;12.33;8.67;;;;;-0.92;82.89;99329.47;4914652;28;102391;-76
2022/12/20 04:27:41;;;;;;;;;10.33;8.00;;;;;-0.87;82.02;99326.47;4916001;28;103956;-74
2022/12/20 04:30:09;;;;;;;;;11.33;7.00;;;;;-0.89;82.04;99326.56;4917587;28;102134;-75
2022/12/20 04:32:36;;;;;;;;;9.67;7.00;;;;;-0.87;81.62;99329.13;4918865;28;102287;-75
2022/12/20 04:35:04;;;;;;;;;5.00;4.33;;;;;-0.84;81.58;99339.50;4912810;28;102348;-75
2022/12/20 04:37:31;;;;;;;;;7.67;5.00;;;;;-0.83;81.49;99342.06;4921471;28;104208;-75
2022/12/20 04:39:58;;;;;;;;;6.33;2.00;;;;;-0.84;81.34;99334.22;4915664;28;102384;-75
2022/12/20 04:42:26;;;;;;;;;9.00;6.33;;;;;-0.87;81.97;99347.72;4924884;28;102436;-75
2022/12/20 04:44:53;;;;;;;;;7.67;5.00;;;;;-0.86;81.77;99341.47;4916819;28;102395;-75
2022/12/20 04:47:20;;;;;;;;;7.00;5.67;;;;;-0.90;81.20;99331.03;4930947;28;104092;-75
2022/12/20 04:49:47;;;;;;;;;8.67;4.67;;;;;-0.87;81.52;99332.63;4929229;28;102207;-75
2022/12/20 04:55:00;;;;;;;;;4.00;2.67;;;;;-0.81;81.22;99326.03;4926255;28;101997;-75
2022/12/20 04:57:27;;;;;;;;;2.00;2.00;;;;;-0.79;81.15;99332.91;4914677;28;104237;-75
2022/12/20 04:59:54;;;;;;;;;8.67;4.33;;;;;-0.84;81.54;99344.81;4907129;28;102271;-75
2022/12/20 05:02:21;;;;;;;;;5.67;2.67;;;;;-0.81;81.80;99341.97;4921892;28;102092;-75
2022/12/20 05:04:48;;;;;;;;;4.33;4.00;;;;;-0.78;82.33;99337.28;4916696;28;102180;-75
2022/12/20 05:07:15;;;;;;;;;3.33;2.00;;;;;-0.80;81.58;99341.84;4907514;28;107015;-75
2022/12/20 05:09:42;;;;;;;;;2.00;1.33;;;;;-0.78;80.76;99331.13;4911118;28;102286;-74
2022/12/20 05:12:09;;;;;;;;;6.67;3.33;;;;;-0.81;81.39;99326.03;4913137;28;102082;-75
2022/12/20 05:14:36;;;;;;;;;2.33;1.00;;;;;-0.80;81.63;99322.41;4918149;28;102517;-74
2022/12/20 05:17:03;;;;;;;;;1.25;0.50;;;;;-0.78;81.15;99323.16;4912213;28;104032;-75
2022/12/20 05:19:30;;;;;;;;;0.50;0.50;;;;;-0.80;80.79;99320.59;4914180;28;102048;-75
2022/12/20 05:27:29;;;;;;;;;0.67;0.67;;;;;-0.77;81.28;99303.63;4912845;28;104961;-74
2022/12/20 05:29:56;;;;;;;;;1.00;1.00;;;;;-0.78;81.90;99304.56;4895681;28;102277;-75
2022/12/20 05:32:23;;;;;;;;;1.00;0.67;;;;;-0.76;81.95;99316.75;4919211;28;102333;-75
2022/12/20 05:34:50;;;;;;;;;0.00;0.00;;;;;-0.77;80.94;99308.94;4910560;28;102114;-75
2022/12/20 05:37:17;;;;;;;;;1.00;1.00;;;;;-0.74;80.67;99324.63;4913145;28;104174;-75
2022/12/20 05:39:44;;;;;;;;;3.33;1.00;;;;;-0.74;80.54;99328.13;4906834;28;102096;-75
2022/12/20 05:42:11;;;;;;;;;0.00;0.00;;;;;-0.77;80.56;99311.59;4922436;28;102470;-75
2022/12/20 05:44:38;;;;;;;;;2.00;1.00;;;;;-0.73;81.26;99315.69;4907485;28;102263;-75
2022/12/20 05:47:05;;;;;;;;;1.00;0.00;;;;;-0.77;81.09;99312.44;4910169;28;103937;-75
2022/12/20 05:49:32;;;;;;;;;1.00;1.00;;;;;-0.79;81.49;99305.53;4918957;28;102218;-75
2022/12/20 05:52:00;;;;;;;;;1.00;1.00;;;;;-0.81;81.30;99310.94;4914290;28;103429;-75
2022/12/20 05:54:27;;;;;;;;;4.00;1.00;;;;;-0.80;81.74;99309.13;4920939;28;102007;-74
2022/12/20 05:56:54;;;;;;;;;2.00;2.00;;;;;-0.84;81.86;99305.00;4916992;28;104117;-75
2022/12/20 05:59:21;;;;;;;;;2.00;1.00;;;;;-0.84;81.15;99303.19;4912996;28;102612;-75
2022/12/20 06:01:48;;;;;;;;;4.00;2.00;;;;;-0.84;81.18;99305.84;4921426;28;101999;-75
2022/12/20 06:04:15;;;;;;;;;2.00;2.00;;;;;-0.83;81.69;99298.75;4904872;28;102412;-76
2022/12/20 06:06:42;;;;;;;;;0.67;0.00;;;;;-0.84;81.55;99302.34;4912267;28;104190;-75
2022/12/20 06:09:09;;;;;;;;;4.00;1.00;;;;;-0.81;81.78;99294.19;4920158;28;103228;-75
2022/12/20 06:11:38;;;;;;;;;5.00;2.00;;;;;-0.81;81.06;99295.00;4893910;28;102368;-75
2022/12/20 06:14:05;;;;;;;;;4.67;4.00;;;;;-0.85;82.58;99300.66;4911915;28;102245;-74
2022/12/20 06:16:32;;;;;;;;;7.67;4.00;;;;;-0.85;81.81;99280.25;4921563;28;104113;-74
2022/12/20 06:18:59;;;;;;;;;2.00;2.00;;;;;-0.87;82.09;99276.91;4928918;28;102201;-74
2022/12/20 06:21:27;;;;;;;;;4.00;2.00;;;;;-0.87;82.02;99279.56;4934423;28;104373;-73
2022/12/20 06:23:54;;;;;;;;;5.00;4.33;;;;;-0.92;81.88;99274.56;4936292;28;103379;-75
2022/12/20 06:26:24;;;;;;;;;7.00;7.00;;;;;-0.93;81.84;99285.28;4936792;28;104156;-75
2022/12/20 06:28:53;;;;;;;;;7.00;5.67;;;;;-0.93;81.61;99272.88;4936464;28;102106;-75
2022/12/20 06:31:20;;;;;;;;;6.67;4.33;;;;;-0.96;82.59;99275.75;4933808;28;102219;-75
2022/12/20 06:33:47;;;;;;;;;4.00;4.00;;;;;-0.96;82.25;99278.41;4938624;28;102292;-75
2022/12/20 06:36:14;;;;;;;;;8.00;5.00;;;;;-0.99;82.78;99281.28;4935841;28;104184;-74
2022/12/20 06:38:41;;;;;;;;;14.67;14.00;;;;;-1.08;83.00;99289.91;4937753;28;102422;-75
2022/12/20 06:41:08;;;;;;;;;20.33;18.67;;;;;-1.11;82.18;99290.13;4935617;28;102063;-75
2022/12/20 06:43:35;;;;;;;;;21.33;16.00;;;;;-1.18;82.36;99298.66;4937012;28;102364;-76
2022/12/20 06:46:02;;;;;;;;;23.33;20.33;;;;;-1.18;82.44;99299.50;4936848;28;103982;-75
2022/12/20 06:48:29;;;;;;;;;20.33;15.67;;;;;-1.12;82.99;99288.44;4935889;28;102394;-75
2022/12/20 06:50:56;;;;;;;;;15.00;12.67;;;;;-1.10;82.68;99291.00;4933086;28;102198;-76
2022/12/20 06:53:24;;;;;;;;;14.00;11.67;;;;;-1.09;82.03;99280.28;4933469;28;102251;-75
2022/12/20 06:55:51;;;;;;;;;11.33;8.00;;;;;-1.06;82.94;99284.50;4930956;28;104022;-75
2022/12/20 06:58:18;;;;;;;;;9.00;7.00;;;;;-1.03;82.28;99286.91;4932946;28;102244;-75
2022/12/20 07:00:46;;;;;;;;;7.67;5.00;;;;;-1.01;83.11;99293.81;4934016;28;101936;-76
2022/12/20 07:03:13;;;;;;;;;5.00;5.00;;;;;-0.99;82.30;99301.69;4922708;28;102290;-74
2022/12/20 07:05:40;;;;;;;;;8.00;4.00;;;;;-0.99;81.89;99296.38;4928282;28;103786;-76
2022/12/20 07:08:08;;;;;;;;;8.00;6.33;;;;;-0.98;82.46;99296.25;4935460;28;102014;-76
2022/12/20 07:10:36;;;;;;;;;8.00;4.00;;;;;-0.96;82.28;99280.22;4921397;28;102125;-75
2022/12/20 07:13:03;;;;;;;;;4.33;4.00;;;;;-0.89;81.39;99292.06;4923538;28;102214;-76
2022/12/20 07:15:30;;;;;;;;;8.00;5.00;;;;;-0.87;81.96;99302.59;4913955;28;104179;-76
2022/12/20 07:17:58;;;;;;;;;5.33;4.67;;;;;-0.87;81.88;99289.31;4934329;28;103289;-75
2022/12/20 07:20:25;;;;;;;;;7.67;7.00;;;;;-0.79;82.08;99305.53;4936493;28;101839;-76
2022/12/20 07:22:52;;;;;;;;;9.00;7.00;;;;;-0.75;81.77;99301.69;4941121;28;101934;-76
2022/12/20 07:25:19;;;;;;;;;5.00;4.00;;;;;-0.65;81.18;99310.66;4936844;28;104052;-75
2022/12/20 07:27:48;;;;;;;;;6.33;4.67;;;;;-0.60;80.51;99301.41;4928280;28;102638;-75
2022/12/20 07:30:17;;;;;;;;;4.00;3.33;;;;;-0.50;80.14;99301.56;4937805;28;102201;-75
2022/12/20 07:32:44;;;;;;;;;8.67;8.00;;;;;-0.51;80.08;99292.75;4938330;28;102071;-74
2022/12/20 07:35:12;;;;;;;;;6.00;5.33;;;;;-0.41;80.13;99284.09;4930140;28;104138;-75
2022/12/20 07:37:39;;;;;;;;;10.33;8.00;;;;;-0.43;79.83;99284.19;4938002;28;102365;-75
2022/12/20 07:40:07;;;;;;;;;5.00;5.00;;;;;-0.28;79.80;99284.88;4939198;28;106335;-75
2022/12/20 07:42:34;;;;;;;;;9.00;5.00;;;;;-0.18;79.37;99297.31;4939752;28;102085;-75
2022/12/20 07:45:07;;;;;;;;;9.00;8.00;;;;;-0.11;79.12;99303.03;4939320;28;108549;-75
2022/12/20 07:47:34;;;;;;;;;8.00;6.33;;;;;-0.14;78.69;99293.50;4938217;28;102222;-76
2022/12/20 07:50:02;;;;;;;;;11.33;6.33;;;;;-0.04;78.00;99281.16;4938110;28;102277;-76
2022/12/20 07:52:33;;;;;;;;;8.00;6.00;;;;;0.12;77.40;99283.50;4939068;28;102193;-75
2022/12/20 07:55:04;;;;;;;;;8.00;6.00;;;;;-0.02;76.60;99236.72;4930163;28;104059;-75
2022/12/20 07:57:39;;;;;;;;;4.00;3.33;;;;;0.28;76.89;99273.34;4936066;28;102331;-75
2022/12/20 08:00:07;;;;;;;;;2.67;2.67;;;;;0.30;76.50;99265.25;4936965;28;101962;-75
2022/12/20 08:02:39;;;;;;;;;5.00;3.33;;;;;0.39;76.52;99269.88;4938657;28;102017;-75
2022/12/20 08:05:08;;;;;;;;;5.25;5.25;;;;;0.43;75.82;99250.03;4936638;28;109379;-75
2022/12/20 08:07:38;;;;;;;;;3.50;2.00;;;;;0.56;75.18;99247.22;4936499;28;101981;-76
2022/12/20 08:10:08;;;;;;;;;2.00;2.00;;;;;0.67;75.48;99265.88;4937700;28;102215;-76
2022/12/20 08:12:35;;;;;;;;;4.50;3.00;;;;;0.70;75.20;99252.31;4936432;28;102290;-76
2022/12/20 08:15:02;;;;;;;;;4.00;4.00;;;;;0.69;75.10;99258.59;4934970;28;104077;-76
2022/12/20 08:17:28;;;;;;;;;2.00;2.00;;;;;0.76;75.50;99249.16;4938160;28;102161;-76
2022/12/20 08:19:56;;;;;;;;;5.50;4.00;;;;;0.79;75.02;99255.06;4937176;28;102406;-76
2022/12/20 08:22:23;;;;;;;;;5.00;4.00;;;;;0.80;74.77;99267.41;4936748;28;102298;-76
2022/12/20 08:24:50;;;;;;;;;5.00;4.75;;;;;0.87;74.58;99255.28;4923080;28;103841;-76
2022/12/20 08:27:17;;;;;;;;;8.00;6.00;;;;;0.90;74.25;99251.56;4936652;28;102190;-76
2022/12/20 08:29:44;;;;;;;;;10.25;7.00;;;;;0.83;74.41;99253.84;4934236;28;102274;-75
2022/12/20 08:32:12;;;;;;;;;8.00;6.00;;;;;0.93;74.80;99261.94;4937122;28;102241;-76
2022/12/20 08:34:39;;;;;;;;;5.00;4.75;;;;;1.04;74.25;99256.56;4936318;28;108772;-76
2022/12/20 08:37:07;;;;;;;;;7.00;5.00;;;;;1.16;74.70;99262.72;4903238;28;102311;-76
2022/12/20 08:39:40;;;;;;;;;6.75;5.00;;;;;1.29;73.56;99271.41;4931697;28;102269;-76
2022/12/20 08:42:07;;;;;;;;;9.50;7.00;;;;;1.24;74.63;99268.28;4938445;28;102255;-76
2022/12/20 08:44:34;;;;;;;;;11.75;6.50;;;;;1.19;73.75;99265.97;4936512;28;104207;-76
2022/12/20 08:47:01;;;;;;;;;9.00;6.00;;;;;1.14;74.08;99252.19;4935571;28;102356;-77
2022/12/20 08:49:28;;;;;;;;;12.25;10.00;;;;;1.09;74.34;99275.69;4929649;28;102165;-76
2022/12/20 08:51:55;;;;;;;;;13.50;9.25;;;;;1.16;74.07;99266.25;4932492;28;102344;-76
2022/12/20 08:54:22;;;;;;;;;8.00;6.00;;;;;1.23;74.34;99264.75;4925131;28;104483;-76
2022/12/20 08:56:49;;;;;;;;;5.25;5.00;;;;;1.35;73.09;99270.91;4931086;28;102196;-76
2022/12/20 08:59:16;;;;;;;;;8.50;4.50;;;;;1.61;72.40;99266.91;4931924;28;102281;-76
2022/12/20 09:01:43;;;;;;;;;6.25;5.75;;;;;1.84;71.82;99269.47;4925378;28;105001;-71
2022/12/20 09:04:11;;;;;;;;;4.00;3.75;;;;;2.12;72.00;99263.44;4928352;28;104027;-76
2022/12/20 09:06:38;;;;;;;;;6.50;4.00;;;;;2.25;70.13;99256.94;4935407;28;103169;-76
2022/12/20 09:09:06;;;;;;;;;9.50;5.25;;;;;2.38;69.27;99259.41;4934953;28;102000;-76
2022/12/20 09:11:33;;;;;;;;;8.75;5.25;;;;;2.59;68.81;99249.50;4932040;28;102093;-76
2022/12/20 09:14:00;;;;;;;;;6.50;4.00;;;;;2.76;68.83;99252.50;4934624;28;104002;-76
2022/12/20 09:16:29;;;;;;;;;2.50;2.00;;;;;2.79;68.52;99244.25;4935534;28;102313;-76
2022/12/20 09:18:58;;;;;;;;;11.00;9.75;;;;;2.52;67.36;99251.00;4927512;28;101961;-75
2022/12/20 09:21:32;;;;;;;;;13.25;12.50;;;;;2.42;69.23;99246.63;4936816;28;102347;-76
2022/12/20 09:23:59;;;;;;;;;14.50;11.50;;;;;2.59;68.30;99248.66;4934566;28;104299;-76
2022/12/20 09:26:26;;;;;;;;;10.75;9.00;;;;;2.68;68.64;99243.38;4919515;28;102299;-75
2022/12/20 09:28:53;;;;;;;;;10.00;9.50;;;;;2.69;67.71;99239.72;4929081;28;102164;-76
2022/12/20 09:31:24;;;;;;;;;9.50;7.50;;;;;2.65;68.00;99235.63;4937636;28;102271;-76
2022/12/20 09:33:59;;;;;;;;;15.50;10.00;;;;;2.53;67.53;99228.69;4927200;28;104013;-75
2022/12/20 09:36:28;;;;;;;;;8.00;6.00;;;;;2.62;69.00;99224.34;4936290;28;102056;-75
2022/12/20 09:38:56;;;;;;;;;14.50;11.00;;;;;2.74;68.64;99219.78;4936491;28;101899;-77
2022/12/20 09:41:32;;;;;;;;;10.50;7.00;;;;;2.64;68.19;99230.41;4934328;28;102129;-76
2022/12/20 09:44:10;;;;;;;;;6.25;6.25;;;;;2.75;68.90;99237.50;4935684;28;103986;-76
2022/12/20 09:46:38;;;;;;;;;10.00;9.50;;;;;2.55;69.63;99241.91;4911728;28;102406;-76
2022/12/20 09:49:10;;;;;;;;;13.00;11.75;;;;;2.37;69.87;99240.84;4934017;28;101892;-76
2022/12/20 09:51:55;;;;;;;;;9.75;9.50;;;;;2.46;69.24;99235.56;4937101;28;102289;-77
2022/12/20 09:55:01;;;;;;;;;13.25;9.00;;;;;2.50;69.95;99226.28;4931894;28;108968;-77
2022/12/20 09:57:56;;;;;;;;;14.50;11.25;;;;;2.31;69.23;99210.19;4915968;28;102293;-75
2022/12/20 10:00:24;;;;;;;;;12.00;10.00;;;;;2.54;68.57;99208.19;4934121;28;101994;-76
2022/12/20 10:02:51;;;;;;;;;11.00;10.00;;;;;2.60;69.27;99203.16;4937314;28;103214;-76
2022/12/20 10:05:49;;;;;;;;;14.25;11.00;;;;;2.63;68.74;99197.53;4919987;28;104049;-76
2022/12/20 10:08:35;;;;;;;;;11.50;9.25;;;;;3.10;67.52;99187.94;4932598;28;102311;-76
2022/12/20 10:11:23;;;;;;;;;10.25;9.25;;;;;3.20;66.13;99176.41;4900946;28;102204;-76
2022/12/20 10:13:50;;;;;;;;;10.50;7.00;;;;;3.36;66.35;99164.16;4934824;28;102131;-75
2022/12/20 10:16:26;;;;;;;;;7.25;6.75;;;;;3.52;65.96;99161.72;4929428;28;103921;-75
2022/12/20 10:19:29;;;;;;;;;5.50;5.50;;;;;3.48;64.50;99170.19;4921605;28;106798;-76
2022/12/20 10:22:21;;;;;;;;;10.00;9.50;;;;;3.41;65.87;99175.28;4916521;28;101906;-76
2022/12/20 10:25:19;;;;;;;;;7.00;5.00;;;;;3.58;65.03;99179.03;4932286;28;102032;-75
2022/12/20 10:27:48;;;;;;;;;17.50;11.25;;;;;3.31;66.34;99177.09;4933431;28;108591;-75
2022/12/20 10:30:20;;;;;;;;;8.75;7.00;;;;;3.43;66.05;99175.94;4935328;28;102175;-74
2022/12/20 10:32:50;;;;;;;;;6.00;5.75;;;;;3.50;66.60;99155.69;4907517;28;102074;-76
2022/12/20 10:35:39;;;;;;;;;6.00;6.00;;;;;3.58;65.81;99161.16;4935424;28;102264;-76
2022/12/20 10:38:11;;;;;;;;;1.50;1.50;;;;;3.45;65.33;99160.63;4932929;28;104113;-77
2022/12/20 10:40:40;;;;;;;;;4.50;3.50;;;;;3.39;65.85;99169.22;4933613;28;102358;-77
2022/12/20 10:43:39;;;;;;;;;7.00;5.50;;;;;3.10;66.84;99171.91;4930336;28;102464;-73
2022/12/20 10:46:08;;;;;;;;;6.25;3.00;;;;;2.90;67.68;99164.00;4936207;28;101995;-73
2022/12/20 10:48:38;;;;;;;;;9.75;9.00;;;;;2.77;67.82;99160.75;4934217;28;104034;-73
2022/12/20 10:51:08;;;;;;;;;8.50;8.50;;;;;2.76;66.96;99154.56;4934997;28;102341;-73
2022/12/20 10:54:00;;;;;;;;;8.50;6.75;;;;;2.72;67.83;99136.28;4904644;28;103346;-73
2022/12/20 10:56:31;;;;;;;;;9.50;9.25;;;;;2.70;68.68;99134.59;4935192;28;102326;-73
2022/12/20 10:59:16;;;;;;;;;6.75;5.75;;;;;2.69;69.82;99130.25;4937957;28;104010;-73
2022/12/20 11:01:45;;;;;;;;;6.00;4.00;;;;;2.64;70.64;99137.84;4937053;28;102378;-73
2022/12/20 11:04:39;;;;;;;;;1.25;1.25;;;;;2.67;70.11;99124.19;4937730;28;102362;-73
2022/12/20 11:07:25;;;;;;;;;5.00;2.25;;;;;2.64;68.89;99119.16;4915026;28;102296;-72
2022/12/20 11:09:59;;;;;;;;;2.75;2.50;;;;;2.61;71.16;99114.06;4935132;28;108657;-73
2022/12/20 11:12:26;;;;;;;;;1.50;1.00;;;;;2.69;71.35;99110.72;4931728;28;102116;-73
2022/12/20 11:15:18;;;;;;;;;2.00;2.00;;;;;2.59;70.16;99102.69;4930235;28;102353;-72
2022/12/20 11:17:51;;;;;;;;;1.50;0.00;;;;;2.76;70.77;99111.00;4934329;28;101984;-73
2022/12/20 11:20:41;;;;;;;;;2.00;2.00;;;;;2.72;69.37;99102.41;4936998;28;104040;-73
2022/12/20 11:23:37;;;;;;;;;3.00;3.00;;;;;2.69;69.36;99092.03;4937331;28;102353;-73
2022/12/20 11:26:07;;;;;;;;;2.75;2.00;;;;;2.74;71.31;99087.13;4918291;28;102436;-73
2022/12/20 11:28:40;;;;;;;;;5.50;2.50;;;;;2.69;70.02;99074.19;4938171;28;104205;-73
2022/12/20 11:31:27;;;;;;;;;2.50;2.00;;;;;2.72;70.73;99073.06;4934768;28;104000;-73
2022/12/20 11:33:59;;;;;;;;;5.50;4.00;;;;;2.75;70.30;99079.97;4926681;28;102147;-73
2022/12/20 11:36:29;;;;;;;;;6.25;3.50;;;;;2.83;70.49;99096.13;4913582;28;102158;-73
2022/12/20 11:39:14;;;;;;;;;4.00;3.00;;;;;2.89;68.90;99087.53;4938861;28;102337;-72
2022/12/20 11:41:56;;;;;;;;;3.00;3.00;;;;;2.99;71.26;99088.38;4898776;28;108725;-73
2022/12/20 11:44:45;;;;;;;;;2.00;2.00;;;;;3.13;70.07;99087.94;4936450;28;101928;-73
2022/12/20 11:47:38;;;;;;;;;2.00;2.00;;;;;3.15;67.31;99086.00;4936510;28;102329;-73
2022/12/20 11:50:23;;;;;;;;;2.75;2.00;;;;;3.21;68.57;99090.75;4906630;28;106416;-73
2022/12/20 11:52:57;;;;;;;;;1.00;1.00;;;;;3.27;68.89;99100.88;4924563;28;108528;-73
2022/12/20 11:55:30;;;;;;;;;1.25;1.00;;;;;3.28;68.16;99088.34;4938265;28;102933;-72